sensor_id;sensor_type;location;lat;lon;timestamp;pressure;altitude;pressure_sealevel;temperature;humidity
5455;BME280;2750;49.050;9.250;2022-07-10T00:01:56;99417.41;;;20.64;88.18
5455;BME280;2750;49.050;9.250;2022-07-10T00:06:57;99425.06;;;20.56;87.75
5455;BME280;2750;49.050;9.250;2022-07-10T00:11:59;99424.84;;;20.24;89.69
5455;BME280;2750;49.050;9.250;2022-07-10T00:17:02;99420.84;;;20.31;87.96
5455;BME280;2750;49.050;9.250;2022-07-10T00:22:04;99422.44;;;20.10;86.43
5455;BME280;2750;49.050;9.250;2022-07-10T00:27:05;99418.53;;;19.92;89.30
5455;BME280;2750;49.050;9.250;2022-07-10T00:32:08;99413.88;;;19.95;88.17
5455;BME280;2750;49.050;9.250;2022-07-10T00:37:10;99402.19;;;19.76;88.19
5455;BME280;2750;49.050;9.250;2022-07-10T00:42:12;99405.06;;;19.36;91.25
5455;BME280;2750;49.050;9.250;2022-07-10T00:47:16;99412.38;;;18.84;93.28
5455;BME280;2750;49.050;9.250;2022-07-10T00:52:19;99408.50;;;18.51;94.29
5455;BME280;2750;49.050;9.250;2022-07-10T00:57:22;99412.56;;;18.30;95.34
5455;BME280;2750;49.050;9.250;2022-07-10T01:02:26;99408.31;;;18.02;97.56
5455;BME280;2750;49.050;9.250;2022-07-10T01:07:27;99406.41;;;17.92;97.29
5455;BME280;2750;49.050;9.250;2022-07-10T01:12:29;99395.72;;;18.07;95.69
5455;BME280;2750;49.050;9.250;2022-07-10T01:17:32;99401.03;;;17.81;96.05
5455;BME280;2750;49.050;9.250;2022-07-10T01:22:35;99402.09;;;17.91;95.99
5455;BME280;2750;49.050;9.250;2022-07-10T01:27:37;99400.38;;;17.50;98.77
5455;BME280;2750;49.050;9.250;2022-07-10T01:32:39;99390.88;;;17.89;95.08
5455;BME280;2750;49.050;9.250;2022-07-10T01:37:42;99395.94;;;18.04;94.08
5455;BME280;2750;49.050;9.250;2022-07-10T01:42:44;99405.69;;;17.90;95.63
5455;BME280;2750;49.050;9.250;2022-07-10T01:47:46;99410.66;;;18.45;92.67
5455;BME280;2750;49.050;9.250;2022-07-10T01:52:48;99414.91;;;18.47;92.67
5455;BME280;2750;49.050;9.250;2022-07-10T01:57:50;99418.63;;;17.93;94.04
5455;BME280;2750;49.050;9.250;2022-07-10T02:02:51;99419.00;;;17.87;95.12
5455;BME280;2750;49.050;9.250;2022-07-10T02:08:08;99420.75;;;17.47;95.94
5455;BME280;2750;49.050;9.250;2022-07-10T02:13:09;99416.78;;;17.54;95.53
5455;BME280;2750;49.050;9.250;2022-07-10T02:18:14;99420.22;;;18.21;92.21
5455;BME280;2750;49.050;9.250;2022-07-10T02:23:18;99433.78;;;18.14;92.37
5455;BME280;2750;49.050;9.250;2022-07-10T02:28:19;99427.59;;;17.76;94.10
5455;BME280;2750;49.050;9.250;2022-07-10T02:33:21;99429.44;;;17.61;93.65
5455;BME280;2750;49.050;9.250;2022-07-10T02:38:23;99432.00;;;17.76;94.90
5455;BME280;2750;49.050;9.250;2022-07-10T02:43:25;99440.13;;;17.44;95.16
5455;BME280;2750;49.050;9.250;2022-07-10T02:48:26;99437.59;;;17.84;93.59
5455;BME280;2750;49.050;9.250;2022-07-10T02:53:29;99435.34;;;18.04;91.86
5455;BME280;2750;49.050;9.250;2022-07-10T02:58:31;99445.25;;;17.87;93.28
5455;BME280;2750;49.050;9.250;2022-07-10T03:03:33;99442.34;;;17.91;92.98
5455;BME280;2750;49.050;9.250;2022-07-10T03:08:36;99448.22;;;17.82;91.77
5455;BME280;2750;49.050;9.250;2022-07-10T03:13:37;99445.25;;;17.74;92.64
5455;BME280;2750;49.050;9.250;2022-07-10T03:18:38;99442.47;;;17.49;93.22
5455;BME280;2750;49.050;9.250;2022-07-10T03:23:41;99453.25;;;17.58;93.52
5455;BME280;2750;49.050;9.250;2022-07-10T03:28:43;99455.47;;;17.64;92.93
5455;BME280;2750;49.050;9.250;2022-07-10T03:33:44;99462.00;;;17.72;92.51
5455;BME280;2750;49.050;9.250;2022-07-10T03:38:47;99463.78;;;17.71;92.22
5455;BME280;2750;49.050;9.250;2022-07-10T03:43:48;99464.13;;;18.06;91.90
5455;BME280;2750;49.050;9.250;2022-07-10T03:48:50;99456.69;;;18.12;91.10
5455;BME280;2750;49.050;9.250;2022-07-10T03:53:53;99453.22;;;18.12;90.74
5455;BME280;2750;49.050;9.250;2022-07-10T03:58:54;99454.16;;;18.11;90.89
5455;BME280;2750;49.050;9.250;2022-07-10T04:03:56;99448.63;;;18.28;90.08
5455;BME280;2750;49.050;9.250;2022-07-10T04:08:59;99458.03;;;18.57;89.71
5455;BME280;2750;49.050;9.250;2022-07-10T04:14:00;99456.97;;;18.60;90.18
5455;BME280;2750;49.050;9.250;2022-07-10T04:19:02;99452.03;;;18.81;88.60
5455;BME280;2750;49.050;9.250;2022-07-10T04:24:05;99460.34;;;19.00;87.72
5455;BME280;2750;49.050;9.250;2022-07-10T04:29:07;99456.00;;;18.86;88.27
5455;BME280;2750;49.050;9.250;2022-07-10T04:34:08;99463.53;;;18.40;89.46
5455;BME280;2750;49.050;9.250;2022-07-10T04:39:11;99472.78;;;18.33;90.37
5455;BME280;2750;49.050;9.250;2022-07-10T04:44:12;99459.81;;;19.80;84.98
5455;BME280;2750;49.050;9.250;2022-07-10T04:49:14;99450.88;;;20.97;81.16
5455;BME280;2750;49.050;9.250;2022-07-10T04:54:17;99451.88;;;22.04;77.33
5455;BME280;2750;49.050;9.250;2022-07-10T04:59:18;99451.72;;;23.09;73.13
5455;BME280;2750;49.050;9.250;2022-07-10T05:04:20;99447.28;;;24.46;69.81
5455;BME280;2750;49.050;9.250;2022-07-10T05:09:23;99451.59;;;23.51;71.43
5455;BME280;2750;49.050;9.250;2022-07-10T05:14:24;99451.75;;;24.64;68.49
5455;BME280;2750;49.050;9.250;2022-07-10T05:19:26;99454.94;;;25.69;65.62
5455;BME280;2750;49.050;9.250;2022-07-10T05:24:29;99462.88;;;25.24;65.07
5455;BME280;2750;49.050;9.250;2022-07-10T05:29:31;99465.19;;;24.34;66.49
5455;BME280;2750;49.050;9.250;2022-07-10T05:34:32;99478.94;;;22.28;70.65
5455;BME280;2750;49.050;9.250;2022-07-10T05:39:35;99489.75;;;20.73;74.93
5455;BME280;2750;49.050;9.250;2022-07-10T05:44:37;99491.75;;;19.76;77.75
5455;BME280;2750;49.050;9.250;2022-07-10T05:49:38;99493.88;;;19.22;78.63
5455;BME280;2750;49.050;9.250;2022-07-10T05:54:41;99486.28;;;21.06;74.21
5455;BME280;2750;49.050;9.250;2022-07-10T05:59:42;99490.72;;;21.27;71.96
5455;BME280;2750;49.050;9.250;2022-07-10T06:04:44;99493.34;;;21.61;70.11
5455;BME280;2750;49.050;9.250;2022-07-10T06:09:47;99503.53;;;19.46;74.77
5455;BME280;2750;49.050;9.250;2022-07-10T06:14:49;99496.66;;;19.93;73.71
5455;BME280;2750;49.050;9.250;2022-07-10T06:19:50;99501.75;;;19.47;74.90
5455;BME280;2750;49.050;9.250;2022-07-10T06:24:53;99513.88;;;18.99;75.20
5455;BME280;2750;49.050;9.250;2022-07-10T06:29:55;99511.91;;;18.77;74.63
5455;BME280;2750;49.050;9.250;2022-07-10T06:34:57;99504.47;;;19.33;73.35
5455;BME280;2750;49.050;9.250;2022-07-10T06:40:00;99507.88;;;19.22;72.80
5455;BME280;2750;49.050;9.250;2022-07-10T06:45:02;99510.91;;;20.01;70.48
5455;BME280;2750;49.050;9.250;2022-07-10T06:50:06;99510.69;;;19.44;72.63
5455;BME280;2750;49.050;9.250;2022-07-10T06:55:09;99523.44;;;19.50;72.67
5455;BME280;2750;49.050;9.250;2022-07-10T07:00:11;99525.84;;;19.53;71.42
5455;BME280;2750;49.050;9.250;2022-07-10T07:05:13;99526.38;;;19.33;71.78
5455;BME280;2750;49.050;9.250;2022-07-10T07:10:15;99531.44;;;18.86;72.51
5455;BME280;2750;49.050;9.250;2022-07-10T07:15:17;99525.13;;;20.12;69.99
5455;BME280;2750;49.050;9.250;2022-07-10T07:20:20;99523.03;;;20.63;68.25
5455;BME280;2750;49.050;9.250;2022-07-10T07:25:41;99515.44;;;20.47;68.85
5455;BME280;2750;49.050;9.250;2022-07-10T07:30:47;99522.69;;;19.85;70.37
5455;BME280;2750;49.050;9.250;2022-07-10T07:35:49;99530.38;;;20.81;65.76
5455;BME280;2750;49.050;9.250;2022-07-10T07:40:51;99528.75;;;21.03;65.28
5455;BME280;2750;49.050;9.250;2022-07-10T07:45:53;99531.47;;;20.90;63.80
5455;BME280;2750;49.050;9.250;2022-07-10T07:50:54;99535.06;;;21.89;61.13
5455;BME280;2750;49.050;9.250;2022-07-10T07:55:57;99524.03;;;21.95;60.94
5455;BME280;2750;49.050;9.250;2022-07-10T08:00:59;99532.03;;;21.39;62.09
5455;BME280;2750;49.050;9.250;2022-07-10T08:06:01;99540.25;;;20.90;62.05
5455;BME280;2750;49.050;9.250;2022-07-10T08:11:04;99537.38;;;20.47;63.57
5455;BME280;2750;49.050;9.250;2022-07-10T08:16:06;99532.06;;;20.36;64.61
5455;BME280;2750;49.050;9.250;2022-07-10T08:21:07;99513.44;;;21.30;62.11
5455;BME280;2750;49.050;9.250;2022-07-10T08:26:10;99528.75;;;20.91;62.77
5455;BME280;2750;49.050;9.250;2022-07-10T08:31:11;99512.75;;;20.82;62.39
5455;BME280;2750;49.050;9.250;2022-07-10T08:36:13;99508.03;;;20.52;62.44
5455;BME280;2750;49.050;9.250;2022-07-10T08:41:17;99512.38;;;21.98;59.69
5455;BME280;2750;49.050;9.250;2022-07-10T08:46:20;99509.31;;;21.59;60.28
5455;BME280;2750;49.050;9.250;2022-07-10T08:51:28;99517.97;;;21.50;60.06
5455;BME280;2750;49.050;9.250;2022-07-10T08:56:33;99506.81;;;21.24;60.07
5455;BME280;2750;49.050;9.250;2022-07-10T09:01:36;99513.50;;;20.95;61.23
5455;BME280;2750;49.050;9.250;2022-07-10T09:06:38;99507.66;;;22.01;59.20
5455;BME280;2750;49.050;9.250;2022-07-10T09:11:41;99499.66;;;23.37;55.75
5455;BME280;2750;49.050;9.250;2022-07-10T09:16:44;99510.69;;;21.97;58.54
5455;BME280;2750;49.050;9.250;2022-07-10T09:21:47;99511.44;;;22.19;57.44
5455;BME280;2750;49.050;9.250;2022-07-10T09:26:59;99501.06;;;23.10;55.91
5455;BME280;2750;49.050;9.250;2022-07-10T09:32:04;99508.41;;;23.77;55.16
5455;BME280;2750;49.050;9.250;2022-07-10T09:37:19;99518.69;;;22.17;57.13
5455;BME280;2750;49.050;9.250;2022-07-10T09:42:30;99526.25;;;22.22;58.00
5455;BME280;2750;49.050;9.250;2022-07-10T09:47:32;99529.84;;;22.73;57.17
5455;BME280;2750;49.050;9.250;2022-07-10T09:52:34;99528.03;;;22.74;57.16
5455;BME280;2750;49.050;9.250;2022-07-10T09:57:40;99530.69;;;22.21;57.68
5455;BME280;2750;49.050;9.250;2022-07-10T10:02:45;99524.16;;;21.82;59.38
5455;BME280;2750;49.050;9.250;2022-07-10T10:07:48;99513.28;;;22.39;58.41
5455;BME280;2750;49.050;9.250;2022-07-10T10:12:54;99515.09;;;23.31;56.26
5455;BME280;2750;49.050;9.250;2022-07-10T10:18:02;99502.56;;;23.64;56.25
5455;BME280;2750;49.050;9.250;2022-07-10T10:23:09;99501.00;;;22.70;58.28
5455;BME280;2750;49.050;9.250;2022-07-10T10:28:13;99507.25;;;21.63;59.00
5455;BME280;2750;49.050;9.250;2022-07-10T10:33:45;99483.88;;;22.33;57.99
5455;BME280;2750;49.050;9.250;2022-07-10T10:39:00;99498.13;;;22.62;57.70
5455;BME280;2750;49.050;9.250;2022-07-10T10:44:26;99503.38;;;22.53;57.12
5455;BME280;2750;49.050;9.250;2022-07-10T10:49:55;99487.63;;;23.63;55.99
5455;BME280;2750;49.050;9.250;2022-07-10T10:55:06;99500.44;;;22.56;56.86
5455;BME280;2750;49.050;9.250;2022-07-10T11:00:28;99509.59;;;22.31;57.67
5455;BME280;2750;49.050;9.250;2022-07-10T11:05:41;99501.38;;;22.45;57.50
5455;BME280;2750;49.050;9.250;2022-07-10T11:10:45;99500.63;;;23.05;55.21
5455;BME280;2750;49.050;9.250;2022-07-10T11:15:49;99497.94;;;23.26;56.68
5455;BME280;2750;49.050;9.250;2022-07-10T11:20:52;99499.56;;;23.17;55.48
5455;BME280;2750;49.050;9.250;2022-07-10T11:25:59;99499.66;;;22.76;56.54
5455;BME280;2750;49.050;9.250;2022-07-10T11:31:09;99488.78;;;22.06;57.34
5455;BME280;2750;49.050;9.250;2022-07-10T11:36:11;99488.13;;;21.81;58.40
5455;BME280;2750;49.050;9.250;2022-07-10T11:41:14;99489.16;;;22.95;56.79
5455;BME280;2750;49.050;9.250;2022-07-10T11:46:18;99485.00;;;23.02;55.76
5455;BME280;2750;49.050;9.250;2022-07-10T11:51:23;99491.34;;;23.20;55.75
5455;BME280;2750;49.050;9.250;2022-07-10T11:56:26;99480.72;;;25.04;52.18
5455;BME280;2750;49.050;9.250;2022-07-10T12:01:31;99480.00;;;24.37;52.97
5455;BME280;2750;49.050;9.250;2022-07-10T12:06:34;99481.88;;;23.48;54.11
5455;BME280;2750;49.050;9.250;2022-07-10T12:11:36;99479.69;;;23.72;52.37
5455;BME280;2750;49.050;9.250;2022-07-10T12:16:40;99491.50;;;23.49;53.86
5455;BME280;2750;49.050;9.250;2022-07-10T12:21:44;99497.84;;;22.76;54.48
5455;BME280;2750;49.050;9.250;2022-07-10T12:26:47;99489.16;;;23.85;52.97
5455;BME280;2750;49.050;9.250;2022-07-10T12:31:52;99485.09;;;23.21;54.27
5455;BME280;2750;49.050;9.250;2022-07-10T12:36:55;99483.59;;;23.68;53.02
5455;BME280;2750;49.050;9.250;2022-07-10T12:41:58;99474.00;;;25.00;51.93
5455;BME280;2750;49.050;9.250;2022-07-10T12:47:02;99481.66;;;24.09;52.29
5455;BME280;2750;49.050;9.250;2022-07-10T12:52:19;99479.38;;;23.66;52.95
5455;BME280;2750;49.050;9.250;2022-07-10T12:57:20;99474.13;;;22.96;54.42
5455;BME280;2750;49.050;9.250;2022-07-10T13:02:23;99477.13;;;23.52;52.93
5455;BME280;2750;49.050;9.250;2022-07-10T13:07:31;99483.03;;;23.84;52.54
5455;BME280;2750;49.050;9.250;2022-07-10T13:12:33;99464.03;;;23.60;53.73
5455;BME280;2750;49.050;9.250;2022-07-10T13:17:44;99474.94;;;22.55;54.80
5455;BME280;2750;49.050;9.250;2022-07-10T13:22:46;99480.69;;;22.39;55.54
5455;BME280;2750;49.050;9.250;2022-07-10T13:27:47;99480.31;;;23.15;53.50
5455;BME280;2750;49.050;9.250;2022-07-10T13:32:50;99479.34;;;22.86;53.78
5455;BME280;2750;49.050;9.250;2022-07-10T13:37:51;99484.31;;;22.59;54.48
5455;BME280;2750;49.050;9.250;2022-07-10T13:42:53;99487.63;;;23.32;53.46
5455;BME280;2750;49.050;9.250;2022-07-10T13:47:56;99477.31;;;22.69;53.47
5455;BME280;2750;49.050;9.250;2022-07-10T13:52:58;99479.03;;;22.38;54.29
5455;BME280;2750;49.050;9.250;2022-07-10T13:58:00;99469.88;;;23.23;53.37
5455;BME280;2750;49.050;9.250;2022-07-10T14:03:03;99466.53;;;23.52;51.33
5455;BME280;2750;49.050;9.250;2022-07-10T14:08:05;99480.63;;;23.62;51.73
5455;BME280;2750;49.050;9.250;2022-07-10T14:13:07;99468.66;;;23.27;52.98
5455;BME280;2750;49.050;9.250;2022-07-10T14:18:10;99462.03;;;25.78;48.97
5455;BME280;2750;49.050;9.250;2022-07-10T14:23:12;99464.22;;;26.36;48.06
5455;BME280;2750;49.050;9.250;2022-07-10T14:28:14;99457.94;;;26.19;47.87
5455;BME280;2750;49.050;9.250;2022-07-10T14:33:18;99453.31;;;26.90;47.44
5455;BME280;2750;49.050;9.250;2022-07-10T14:38:19;99443.78;;;27.14;46.23
5455;BME280;2750;49.050;9.250;2022-07-10T14:43:21;99441.03;;;28.30;44.18
5455;BME280;2750;49.050;9.250;2022-07-10T14:48:24;99438.31;;;28.62;44.59
5455;BME280;2750;49.050;9.250;2022-07-10T14:53:26;99444.00;;;27.86;45.31
5455;BME280;2750;49.050;9.250;2022-07-10T14:58:27;99433.63;;;28.64;43.82
5455;BME280;2750;49.050;9.250;2022-07-10T15:03:30;99432.31;;;28.60;44.04
5455;BME280;2750;49.050;9.250;2022-07-10T15:08:31;99434.81;;;27.89;46.24
5455;BME280;2750;49.050;9.250;2022-07-10T15:13:34;99440.44;;;26.60;47.00
5455;BME280;2750;49.050;9.250;2022-07-10T15:18:36;99431.34;;;26.96;46.20
5455;BME280;2750;49.050;9.250;2022-07-10T15:23:38;99431.97;;;28.71;44.31
5455;BME280;2750;49.050;9.250;2022-07-10T15:28:39;99418.16;;;28.43;44.67
5455;BME280;2750;49.050;9.250;2022-07-10T15:33:42;99426.69;;;26.98;46.37
5455;BME280;2750;49.050;9.250;2022-07-10T15:38:45;99423.31;;;28.29;45.30
5455;BME280;2750;49.050;9.250;2022-07-10T15:43:46;99425.31;;;28.51;44.42
5455;BME280;2750;49.050;9.250;2022-07-10T15:48:49;99416.63;;;27.76;45.65
5455;BME280;2750;49.050;9.250;2022-07-10T15:53:51;99407.13;;;26.56;47.13
5455;BME280;2750;49.050;9.250;2022-07-10T15:58:52;99405.56;;;27.05;46.62
5455;BME280;2750;49.050;9.250;2022-07-10T16:03:55;99412.72;;;26.71;46.77
5455;BME280;2750;49.050;9.250;2022-07-10T16:08:57;99407.41;;;27.04;46.19
5455;BME280;2750;49.050;9.250;2022-07-10T16:13:58;99411.78;;;27.80;46.04
5455;BME280;2750;49.050;9.250;2022-07-10T16:19:01;99406.94;;;27.59;45.55
5455;BME280;2750;49.050;9.250;2022-07-10T16:24:04;99395.56;;;28.62;44.69
5455;BME280;2750;49.050;9.250;2022-07-10T16:29:05;99392.28;;;27.87;45.43
5455;BME280;2750;49.050;9.250;2022-07-10T16:34:08;99399.78;;;27.26;46.37
5455;BME280;2750;49.050;9.250;2022-07-10T16:39:10;99391.22;;;27.56;46.22
5455;BME280;2750;49.050;9.250;2022-07-10T16:44:11;99389.56;;;26.20;48.61
5455;BME280;2750;49.050;9.250;2022-07-10T16:49:15;99385.94;;;24.95;50.04
5455;BME280;2750;49.050;9.250;2022-07-10T16:54:17;99394.31;;;24.54;51.06
5455;BME280;2750;49.050;9.250;2022-07-10T16:59:18;99386.78;;;24.59;50.87
5455;BME280;2750;49.050;9.250;2022-07-10T17:04:21;99387.56;;;23.84;51.51
5455;BME280;2750;49.050;9.250;2022-07-10T17:09:36;99393.31;;;23.79;53.09
5455;BME280;2750;49.050;9.250;2022-07-10T17:14:38;99385.75;;;24.13;53.42
5455;BME280;2750;49.050;9.250;2022-07-10T17:19:41;99407.84;;;24.70;52.45
5455;BME280;2750;49.050;9.250;2022-07-10T17:24:42;99402.50;;;25.34;51.38
5455;BME280;2750;49.050;9.250;2022-07-10T17:29:44;99409.06;;;25.67;51.03
5455;BME280;2750;49.050;9.250;2022-07-10T17:34:48;99407.97;;;25.95;50.41
5455;BME280;2750;49.050;9.250;2022-07-10T17:39:50;99402.91;;;25.39;51.70
5455;BME280;2750;49.050;9.250;2022-07-10T17:44:52;99411.72;;;23.81;54.29
5455;BME280;2750;49.050;9.250;2022-07-10T17:49:55;99407.34;;;23.42;55.29
5455;BME280;2750;49.050;9.250;2022-07-10T17:54:56;99409.34;;;23.49;55.50
5455;BME280;2750;49.050;9.250;2022-07-10T17:59:58;99412.78;;;22.91;56.43
5455;BME280;2750;49.050;9.250;2022-07-10T18:05:00;99412.34;;;22.65;56.97
5455;BME280;2750;49.050;9.250;2022-07-10T18:10:03;99409.66;;;22.76;56.98
5455;BME280;2750;49.050;9.250;2022-07-10T18:15:05;99419.72;;;22.61;57.30
5455;BME280;2750;49.050;9.250;2022-07-10T18:20:09;99414.72;;;22.37;58.09
5455;BME280;2750;49.050;9.250;2022-07-10T18:25:10;99427.94;;;22.37;58.17
5455;BME280;2750;49.050;9.250;2022-07-10T18:30:13;99416.47;;;22.58;58.02
5455;BME280;2750;49.050;9.250;2022-07-10T18:35:17;99411.78;;;22.40;58.34
5455;BME280;2750;49.050;9.250;2022-07-10T18:40:19;99410.03;;;22.51;58.27
5455;BME280;2750;49.050;9.250;2022-07-10T18:45:21;99420.44;;;22.22;58.82
5455;BME280;2750;49.050;9.250;2022-07-10T18:50:24;99412.94;;;22.48;58.94
5455;BME280;2750;49.050;9.250;2022-07-10T18:55:25;99426.47;;;22.54;58.60
5455;BME280;2750;49.050;9.250;2022-07-10T19:00:27;99426.78;;;22.30;59.06
5455;BME280;2750;49.050;9.250;2022-07-10T19:05:30;99426.19;;;22.06;59.39
5455;BME280;2750;49.050;9.250;2022-07-10T19:10:32;99423.28;;;22.30;59.22
5455;BME280;2750;49.050;9.250;2022-07-10T19:15:34;99431.47;;;22.06;59.95
5455;BME280;2750;49.050;9.250;2022-07-10T19:20:36;99438.22;;;21.99;60.00
5455;BME280;2750;49.050;9.250;2022-07-10T19:25:38;99439.91;;;21.89;59.90
5455;BME280;2750;49.050;9.250;2022-07-10T19:30:40;99449.56;;;21.79;59.82
5455;BME280;2750;49.050;9.250;2022-07-10T19:35:43;99457.03;;;21.74;60.03
5455;BME280;2750;49.050;9.250;2022-07-10T19:40:45;99467.66;;;21.52;60.70
5455;BME280;2750;49.050;9.250;2022-07-10T19:45:46;99469.75;;;21.80;60.06
5455;BME280;2750;49.050;9.250;2022-07-10T19:50:49;99472.88;;;21.74;60.49
5455;BME280;2750;49.050;9.250;2022-07-10T19:55:51;99468.78;;;21.81;60.60
5455;BME280;2750;49.050;9.250;2022-07-10T20:00:52;99483.84;;;21.58;61.23
5455;BME280;2750;49.050;9.250;2022-07-10T20:05:55;99488.91;;;21.39;61.95
5455;BME280;2750;49.050;9.250;2022-07-10T20:10:57;99482.66;;;21.51;62.03
5455;BME280;2750;49.050;9.250;2022-07-10T20:15:58;99484.00;;;21.45;61.90
5455;BME280;2750;49.050;9.250;2022-07-10T20:21:01;99478.75;;;21.23;62.51
5455;BME280;2750;49.050;9.250;2022-07-10T20:26:03;99479.09;;;20.96;63.30
5455;BME280;2750;49.050;9.250;2022-07-10T20:31:05;99473.66;;;20.98;63.21
5455;BME280;2750;49.050;9.250;2022-07-10T20:36:08;99478.28;;;21.18;62.93
5455;BME280;2750;49.050;9.250;2022-07-10T20:41:27;99476.34;;;21.20;63.51
5455;BME280;2750;49.050;9.250;2022-07-10T20:46:29;99476.44;;;21.52;62.66
5455;BME280;2750;49.050;9.250;2022-07-10T20:51:32;99478.00;;;21.32;63.34
5455;BME280;2750;49.050;9.250;2022-07-10T20:56:34;99474.63;;;20.97;64.21
5455;BME280;2750;49.050;9.250;2022-07-10T21:01:36;99477.66;;;21.04;64.40
5455;BME280;2750;49.050;9.250;2022-07-10T21:06:38;99486.91;;;21.42;63.90
5455;BME280;2750;49.050;9.250;2022-07-10T21:11:40;99486.66;;;21.34;64.16
5455;BME280;2750;49.050;9.250;2022-07-10T21:16:41;99486.13;;;21.63;63.57
5455;BME280;2750;49.050;9.250;2022-07-10T21:21:44;99489.13;;;21.58;63.54
5455;BME280;2750;49.050;9.250;2022-07-10T21:26:46;99492.56;;;21.81;63.19
5455;BME280;2750;49.050;9.250;2022-07-10T21:31:47;99486.25;;;22.04;62.96
5455;BME280;2750;49.050;9.250;2022-07-10T21:36:50;99488.94;;;21.93;64.28
5455;BME280;2750;49.050;9.250;2022-07-10T21:41:51;99480.94;;;21.72;64.28
5455;BME280;2750;49.050;9.250;2022-07-10T21:46:53;99482.56;;;21.41;65.93
5455;BME280;2750;49.050;9.250;2022-07-10T21:51:56;99485.34;;;21.18;65.88
5455;BME280;2750;49.050;9.250;2022-07-10T21:56:58;99472.97;;;20.85;67.18
5455;BME280;2750;49.050;9.250;2022-07-10T22:01:59;99475.19;;;20.67;67.87
5455;BME280;2750;49.050;9.250;2022-07-10T22:07:02;99473.28;;;20.58;68.74
5455;BME280;2750;49.050;9.250;2022-07-10T22:12:05;99475.41;;;20.42;68.54
5455;BME280;2750;49.050;9.250;2022-07-10T22:17:06;99468.69;;;20.49;68.58
5455;BME280;2750;49.050;9.250;2022-07-10T22:22:09;99454.69;;;20.71;67.46
5455;BME280;2750;49.050;9.250;2022-07-10T22:27:11;99460.97;;;20.81;68.43
5455;BME280;2750;49.050;9.250;2022-07-10T22:32:12;99457.59;;;20.79;68.38
5455;BME280;2750;49.050;9.250;2022-07-10T22:37:15;99458.03;;;20.50;68.59
5455;BME280;2750;49.050;9.250;2022-07-10T22:42:16;99455.44;;;20.62;68.43
5455;BME280;2750;49.050;9.250;2022-07-10T22:47:18;99461.06;;;20.68;67.77
5455;BME280;2750;49.050;9.250;2022-07-10T22:52:20;99468.88;;;20.70;68.55
5455;BME280;2750;49.050;9.250;2022-07-10T22:57:22;99465.69;;;20.31;70.24
5455;BME280;2750;49.050;9.250;2022-07-10T23:02:23;99459.13;;;20.24;70.08
5455;BME280;2750;49.050;9.250;2022-07-10T23:07:26;99457.97;;;20.28;70.42
5455;BME280;2750;49.050;9.250;2022-07-10T23:12:32;99453.31;;;20.43;70.92
5455;BME280;2750;49.050;9.250;2022-07-10T23:17:34;99451.09;;;20.49;71.09
5455;BME280;2750;49.050;9.250;2022-07-10T23:22:37;99448.22;;;20.75;69.98
5455;BME280;2750;49.050;9.250;2022-07-10T23:27:38;99449.22;;;20.96;69.47
5455;BME280;2750;49.050;9.250;2022-07-10T23:32:40;99437.31;;;20.79;69.94
5455;BME280;2750;49.050;9.250;2022-07-10T23:37:43;99445.59;;;20.97;69.91
5455;BME280;2750;49.050;9.250;2022-07-10T23:42:45;99437.25;;;20.00;72.71
5455;BME280;2750;49.050;9.250;2022-07-10T23:47:46;99432.28;;;20.19;72.62
5455;BME280;2750;49.050;9.250;2022-07-10T23:52:49;99437.81;;;20.27;72.07
5455;BME280;2750;49.050;9.250;2022-07-10T23:57:51;99430.09;;;20.13;73.15
